Time;durP1;ratioP1;P1;durP2;ratioP2;P2;SDS_P1;SDS_P2;PMS_P1;PMS_P2;Temp;Humidity;BMP_temperature;BMP_pressure;BME280_temperature;BME280_humidity;BME280_pressure;Samples;Min_cycle;Max_cycle;Signal;HPM_P1;HPM_P2
2024/01/04 00:00:11;;;;;;;15.23;8.93;;;;;;;-142.91;100.00;56616.03;5040680;28;20289;-71
2024/01/04 00:02:39;;;;;;;11.80;8.30;;;;;;;-142.91;100.00;56616.03;5038728;28;20286;-70
2024/01/04 00:05:06;;;;;;;17.50;9.20;;;;;;;;;;5041217;28;20295;-70
2024/01/04 00:07:33;;;;;;;17.38;9.18;;;;;;;-142.91;100.00;56616.03;5041366;28;20313;-71
2024/01/04 00:09:59;;;;;;;11.80;8.45;;;;;;;-142.91;100.00;56616.03;5037676;28;20713;-70
2024/01/04 00:12:26;;;;;;;10.57;6.65;;;;;;;-142.91;100.00;56616.03;5043556;28;20298;-72
2024/01/04 00:14:52;;;;;;;11.60;7.28;;;;;;;-142.91;100.00;56616.03;5038958;28;20324;-73
2024/01/04 00:17:19;;;;;;;9.77;6.90;;;;;;;-142.91;100.00;56616.03;5035654;28;20286;-72
2024/01/04 00:19:47;;;;;;;7.00;6.13;;;;;;;-142.91;100.00;56616.03;5039053;28;20330;-76
2024/01/04 00:22:14;;;;;;;11.77;5.75;;;;;;;-142.91;100.00;56616.03;5033408;28;20362;-74
2024/01/04 00:24:40;;;;;;;7.72;6.07;;;;;;;-142.91;100.00;56616.03;5031061;28;20231;-74
2024/01/04 00:27:07;;;;;;;6.45;5.30;;;;;;;-142.91;100.00;56616.03;5041238;28;20643;-74
2024/01/04 00:29:34;;;;;;;8.52;5.53;;;;;;;-142.91;100.00;56616.03;5034084;28;20577;-74
2024/01/04 00:32:00;;;;;;;7.15;5.15;;;;;;;-142.91;100.00;56616.03;5039800;28;20232;-72
2024/01/04 00:34:27;;;;;;;9.55;6.00;;;;;;;-142.91;100.00;56616.03;5040601;28;20290;-72
2024/01/04 00:36:56;;;;;;;8.73;5.93;;;;;;;-142.91;100.00;56616.03;5042143;28;20748;-72
2024/01/04 00:39:24;;;;;;;7.47;4.72;;;;;;;-142.91;100.00;56616.03;5038271;28;20699;-73
2024/01/04 00:41:51;;;;;;;6.55;5.10;;;;;;;-142.91;100.00;56616.03;5039419;28;20621;-73
2024/01/04 00:44:17;;;;;;;8.05;5.28;;;;;;;-142.91;100.00;56616.03;5038348;28;20695;-71
2024/01/04 00:46:44;;;;;;;9.82;6.00;;;;;;;-142.91;100.00;56616.03;5041402;28;20649;-70
2024/01/04 00:49:11;;;;;;;6.57;5.75;;;;;;;-142.91;100.00;56616.03;5040429;28;20792;-70
2024/01/04 00:51:37;;;;;;;7.30;6.38;;;;;;;-142.91;100.00;56616.03;5036615;28;20261;-70
2024/01/04 00:54:06;;;;;;;8.55;6.78;;;;;;;-142.91;100.00;56616.03;5004260;28;20295;-71
2024/01/04 00:56:33;;;;;;;10.93;7.63;;;;;;;-142.91;100.00;56616.03;5025094;28;20204;-70
2024/01/04 00:59:00;;;;;;;11.00;7.30;;;;;;;-142.91;100.00;56616.03;5023131;28;20199;-70
2024/01/04 01:01:27;;;;;;;11.70;7.97;;;;;;;-142.91;100.00;56616.03;5022911;28;20208;-70
2024/01/04 01:03:54;;;;;;;13.70;8.82;;;;;;;-142.91;100.00;56616.03;5015444;28;20642;-70
2024/01/04 01:06:20;;;;;;;12.05;8.43;;;;;;;-142.91;100.00;56616.03;5017730;28;20216;-70
2024/01/04 01:08:47;;;;;;;12.45;8.05;;;;;;;-142.91;100.00;56616.03;5013785;28;20220;-71
2024/01/04 01:11:15;;;;;;;13.07;8.48;;;;;;;-142.91;100.00;56616.03;5014845;28;20211;-71
2024/01/04 01:13:43;;;;;;;10.30;8.23;;;;;;;-142.91;100.00;56616.03;5011426;28;20209;-70
2024/01/04 01:16:09;;;;;;;13.15;7.82;;;;;;;-142.91;100.00;56616.03;5016484;28;20234;-72
2024/01/04 01:18:36;;;;;;;12.30;9.10;;;;;;;-142.91;100.00;56616.03;5019171;28;20257;-70
2024/01/04 01:21:03;;;;;;;12.43;9.02;;;;;;;-142.91;100.00;56616.03;5005403;28;20646;-71
2024/01/04 01:23:30;;;;;;;14.95;9.13;;;;;;;-142.91;100.00;56616.03;5003485;28;20291;-74
2024/01/04 01:25:56;;;;;;;10.27;8.55;;;;;;;-142.91;100.00;56616.03;5013458;28;20244;-74
2024/01/04 01:28:24;;;;;;;12.35;9.35;;;;;;;-142.91;100.00;56616.03;5014433;28;20215;-73
2024/01/04 01:30:51;;;;;;;13.55;9.15;;;;;;;-142.91;100.00;56616.03;5012905;28;20287;-70
2024/01/04 01:33:18;;;;;;;13.05;9.90;;;;;;;-142.91;100.00;56616.03;5011742;28;20287;-78
2024/01/04 01:35:44;;;;;;;13.70;8.52;;;;;;;-142.91;100.00;56616.03;5014358;28;20414;-72
2024/01/04 01:38:11;;;;;;;17.35;9.77;;;;;;;-142.91;100.00;56616.03;5012073;28;20254;-74
2024/01/04 01:40:37;;;;;;;15.68;10.55;;;;;;;-142.91;100.00;56616.03;5011706;28;20631;-71
2024/01/04 01:43:04;;;;;;;13.00;9.70;;;;;;;-142.91;100.00;56616.03;5008646;28;20282;-72
2024/01/04 01:45:32;;;;;;;19.60;10.73;;;;;;;-142.91;100.00;56616.03;5012416;28;20291;-72
2024/01/04 01:47:59;;;;;;;20.52;11.65;;;;;;;-142.91;100.00;56616.03;5011175;28;20326;-72
2024/01/04 01:50:26;;;;;;;13.25;9.68;;;;;;;-142.91;100.00;56616.03;5011790;28;20299;-71
2024/01/04 01:52:53;;;;;;;17.67;10.18;;;;;;;-142.91;100.00;56616.03;5012201;28;20239;-72
2024/01/04 01:55:21;;;;;;;17.70;10.27;;;;;;;-142.91;100.00;56616.03;5013879;28;20338;-72
2024/01/04 01:57:48;;;;;;;14.68;9.32;;;;;;;-142.91;100.00;56616.03;5010203;28;20290;-71
2024/01/04 02:00:16;;;;;;;13.48;9.90;;;;;;;-142.91;100.00;56616.03;5018567;28;20303;-72
2024/01/04 02:02:48;;;;;;;11.55;8.73;;;;;;;-142.91;100.00;56616.03;5012291;28;20338;-72
2024/01/04 02:05:15;;;;;;;11.65;8.75;;;;;;;-142.91;100.00;56616.03;5011401;28;20286;-72
2024/01/04 02:07:43;;;;;;;12.27;8.52;;;;;;;23.25;100.00;56616.03;5008614;28;20322;-72
2024/01/04 02:10:10;;;;;;;14.85;8.88;;;;;;;-142.91;100.00;56616.03;5012195;28;20298;-72
2024/01/04 02:12:36;;;;;;;9.65;8.48;;;;;;;-142.91;100.00;56616.03;5011385;28;20283;-71
2024/01/04 02:15:03;;;;;;;10.15;7.95;;;;;;;-142.91;100.00;56616.03;5018385;28;20668;-72
2024/01/04 02:17:30;;;;;;;9.77;7.05;;;;;;;-142.91;100.00;56616.03;5014587;28;20294;-72
2024/01/04 02:19:58;;;;;;;9.90;7.13;;;;;;;-142.91;100.00;56616.03;5012514;28;20290;-71
2024/01/04 02:22:25;;;;;;;13.50;7.55;;;;;;;-142.91;100.00;56616.03;5017255;28;20313;-72
2024/01/04 02:24:53;;;;;;;9.68;7.85;;;;;;;-142.91;100.00;56616.03;5015662;28;20286;-72
2024/01/04 02:27:19;;;;;;;11.85;7.88;;;;;;;-142.91;100.00;56616.03;5012162;28;20306;-71
2024/01/04 02:29:47;;;;;;;12.10;8.23;;;;;;;-142.91;100.00;56616.03;5013803;28;20220;-71
2024/01/04 02:32:14;;;;;;;12.23;8.60;;;;;;;-142.91;100.00;56616.03;5012008;28;20323;-71
2024/01/04 02:34:40;;;;;;;12.88;8.38;;;;;;;-142.91;100.00;56616.03;5017850;28;20262;-71
2024/01/04 02:37:07;;;;;;;11.73;7.95;;;;;;;-142.91;100.00;56616.03;5013427;28;20282;-70
2024/01/04 02:39:34;;;;;;;11.68;6.65;;;;;;;-142.91;100.00;56616.03;5015487;28;20286;-72
2024/01/04 02:42:01;;;;;;;10.95;7.13;;;;;;;-142.91;100.00;56616.03;5012132;28;20288;-72
2024/01/04 02:44:28;;;;;;;11.20;7.80;;;;;;;-142.91;100.00;56616.03;5010814;28;20656;-72
2024/01/04 02:46:56;;;;;;;8.50;6.85;;;;;;;-142.91;100.00;56616.03;5009937;28;20299;-71
2024/01/04 02:49:23;;;;;;;12.45;7.65;;;;;;;-142.91;100.00;56616.03;5016455;28;20235;-71
2024/01/04 02:51:49;;;;;;;9.10;6.75;;;;;;;-142.91;100.00;56616.03;5012432;28;20286;-70
2024/01/04 02:54:16;;;;;;;10.35;6.95;;;;;;;-142.91;100.00;56616.03;5010502;28;20320;-72
2024/01/04 02:56:42;;;;;;;6.70;5.80;;;;;;;-142.91;100.00;56616.03;5012250;28;20382;-71
2024/01/04 02:59:10;;;;;;;8.45;5.30;;;;;;;-142.91;100.00;56616.03;5009002;28;20358;-71
2024/01/04 03:01:37;;;;;;;7.95;5.88;;;;;;;-142.91;100.00;56616.03;5009357;28;20303;-71
2024/01/04 03:04:04;;;;;;;9.95;5.60;;;;;;;-142.91;100.00;56616.03;5017154;28;20317;-72
2024/01/04 03:06:30;;;;;;;6.22;4.90;;;;;;;-142.91;100.00;56616.03;5017464;28;20283;-71
2024/01/04 03:08:57;;;;;;;8.18;4.80;;;;;;;-142.91;100.00;56616.03;5010662;28;20813;-71
2024/01/04 03:11:24;;;;;;;7.95;5.35;;;;;;;-142.91;100.00;56616.03;5011125;28;20295;-71
2024/01/04 03:13:51;;;;;;;8.48;4.30;;;;;;;-142.91;100.00;56616.03;5013689;28;21354;-72
2024/01/04 03:16:20;;;;;;;5.60;4.93;;;;;;;-142.91;100.00;56616.03;5026126;28;20736;-71
2024/01/04 03:18:47;;;;;;;7.18;5.20;;;;;;;-142.91;100.00;56616.03;5032274;28;20282;-72
2024/01/04 03:21:14;;;;;;;7.18;5.45;;;;;;;-142.91;100.00;56616.03;5029924;28;20350;-71
2024/01/04 03:23:41;;;;;;;6.13;4.82;;;;;;;-142.91;100.00;56616.03;5027566;28;20210;-71
2024/01/04 03:26:07;;;;;;;6.82;4.60;;;;;;;-142.91;100.00;56616.03;5021478;28;20237;-71
2024/01/04 03:28:34;;;;;;;6.63;5.32;;;;;;;23.29;100.00;56616.03;5023774;28;20306;-71
2024/01/04 03:31:01;;;;;;;8.80;5.47;;;;;;;-142.91;100.00;56616.03;5025133;28;20295;-72
2024/01/04 03:33:29;;;;;;;5.88;5.15;;;;;;;-142.91;100.00;56616.03;5024701;28;20743;-72
2024/01/04 03:35:56;;;;;;;6.95;5.10;;;;;;;-142.91;100.00;56616.03;5022800;28;20302;-72
2024/01/04 03:38:23;;;;;;;6.95;5.30;;;;;;;-142.91;100.00;56616.03;5023739;28;20242;-72
2024/01/04 03:40:49;;;;;;;5.93;5.30;;;;;;;;;;5023211;28;20212;-71
2024/01/04 03:43:16;;;;;;;8.15;5.38;;;;;;;-142.91;100.00;56616.03;5026034;28;20223;-71
2024/01/04 03:45:42;;;;;;;9.35;5.10;;;;;;;-142.91;100.00;56616.03;5024301;28;20323;-70
2024/01/04 03:48:09;;;;;;;5.10;4.70;;;;;;;-142.91;100.00;56616.03;5023532;28;20287;-72
2024/01/04 03:50:37;;;;;;;7.25;6.15;;;;;;;-142.91;100.00;56616.03;5013138;28;20300;-71
2024/01/04 03:53:04;;;;;;;10.15;6.05;;;;;;;-142.91;100.00;56616.03;5026312;28;20268;-71
2024/01/04 03:55:31;;;;;;;8.10;7.03;;;;;;;-142.91;100.00;56616.03;5025228;28;20307;-71
2024/01/04 03:57:57;;;;;;;12.55;7.47;;;;;;;-142.91;100.00;56616.03;5026156;28;20239;-71
2024/01/04 04:00:24;;;;;;;13.20;7.20;;;;;;;-142.91;100.00;56616.03;5028014;28;20327;-71
2024/01/04 04:02:52;;;;;;;11.07;8.05;;;;;;;-142.91;100.00;56616.03;5016683;28;20222;-71
2024/01/04 04:05:18;;;;;;;11.02;8.45;;;;;;;-142.91;100.00;56616.03;5020402;28;20199;-70
2024/01/04 04:07:46;;;;;;;12.52;8.45;;;;;;;-142.91;100.00;56616.03;5024103;28;20298;-71
2024/01/04 04:10:13;;;;;;;15.65;8.68;;;;;;;-142.91;100.00;56616.03;5023126;28;20303;-73
2024/01/04 04:12:38;;;;;;;13.15;8.32;;;;;;;-142.91;100.00;56616.03;5022544;28;20299;-72
2024/01/04 04:15:06;;;;;;;12.35;8.95;;;;;;;-142.91;100.00;56616.03;5021795;28;20771;-71
2024/01/04 04:17:32;;;;;;;13.43;9.15;;;;;;;-142.91;100.00;56616.03;5023977;28;20768;-71
2024/01/04 04:19:59;;;;;;;13.85;7.97;;;;;;;-142.91;100.00;56616.03;5022534;28;20299;-70
2024/01/04 04:22:26;;;;;;;11.27;7.88;;;;;;;-142.91;100.00;56616.03;5026050;28;20322;-71
2024/01/04 04:24:53;;;;;;;10.07;8.40;;;;;;;-142.91;100.00;56616.03;5028350;28;20658;-71
2024/01/04 04:27:20;;;;;;;9.98;8.27;;;;;;;-142.91;100.00;56616.03;5027427;28;20673;-71
2024/01/04 04:29:47;;;;;;;13.27;8.20;;;;;;;-142.91;100.00;56616.03;5027475;28;20243;-72
2024/01/04 04:32:13;;;;;;;12.13;8.23;;;;;;;-142.91;100.00;56616.03;5025145;28;20200;-71
2024/01/04 04:34:39;;;;;;;14.57;8.65;;;;;;;-142.91;100.00;56616.03;5027363;28;20287;-72
2024/01/04 04:37:06;;;;;;;11.07;7.90;;;;;;;-142.91;100.00;56616.03;5027571;28;20290;-72
2024/01/04 04:39:32;;;;;;;9.82;8.70;;;;;;;-142.91;100.00;56616.03;5026354;28;20696;-72
2024/01/04 04:42:00;;;;;;;19.45;8.75;;;;;;;-142.91;100.00;56616.03;5029641;28;20306;-72
2024/01/04 04:44:27;;;;;;;13.77;9.00;;;;;;;-142.91;100.00;56616.03;5030905;28;20290;-71
2024/01/04 04:46:54;;;;;;;14.45;8.02;;;;;;;-142.91;100.00;56616.03;5031450;28;20307;-72
2024/01/04 04:49:21;;;;;;;12.02;8.23;;;;;;;-142.91;100.00;56616.03;5029957;28;20322;-72
2024/01/04 04:51:49;;;;;;;12.07;8.35;;;;;;;-142.91;100.00;56616.03;5027351;28;20662;-72
2024/01/04 04:54:16;;;;;;;12.32;8.55;;;;;;;-142.91;100.00;56616.03;5028019;28;20677;-71
2024/01/04 04:56:43;;;;;;;11.80;8.85;;;;;;;-142.91;100.00;56616.03;5027960;28;20247;-72
2024/01/04 04:59:12;;;;;;;9.50;7.47;;;;;;;-142.91;100.00;56616.03;5029059;28;20684;-71
2024/01/04 05:01:40;;;;;;;14.15;9.60;;;;;;;-142.91;100.00;56616.03;5026550;28;20693;-74
2024/01/04 05:04:06;;;;;;;10.75;7.97;;;;;;;-142.91;100.00;56616.03;5028805;28;20204;-72
2024/01/04 05:06:33;;;;;;;13.50;8.75;;;;;;;-142.91;100.00;56616.03;5030490;28;20295;-71
2024/01/04 05:09:00;;;;;;;9.35;7.38;;;;;;;-142.91;100.00;56616.03;5027119;28;20326;-72
2024/01/04 05:11:26;;;;;;;15.55;9.32;;;;;;;-142.91;100.00;56616.03;5034333;28;20295;-72
2024/01/04 05:13:53;;;;;;;15.13;10.18;;;;;;;-142.91;100.00;56616.03;5026688;28;20659;-71
2024/01/04 05:16:21;;;;;;;19.05;9.65;;;;;;;-142.91;100.00;56616.03;5023682;28;20227;-71
2024/01/04 05:18:47;;;;;;;12.93;9.98;;;;;;;23.25;100.00;56616.03;5026461;28;20291;-71
2024/01/04 05:21:14;;;;;;;16.67;10.15;;;;;;;-142.91;100.00;56616.03;5026411;28;20904;-71
2024/01/04 05:23:41;;;;;;;16.30;10.50;;;;;;;-142.91;100.00;56616.03;5027294;28;20306;-72
2024/01/04 05:26:07;;;;;;;23.17;11.95;;;;;;;-142.91;100.00;56616.03;5026761;28;20304;-72
2024/01/04 05:28:34;;;;;;;18.17;10.95;;;;;;;-142.91;100.00;56616.03;5027367;28;20290;-71
2024/01/04 05:31:00;;;;;;;16.95;11.50;;;;;;;-142.91;100.00;56616.03;5025426;28;20318;-71
2024/01/04 05:33:28;;;;;;;14.85;11.32;;;;;;;-142.91;100.00;56616.03;5026298;28;20295;-72
2024/01/04 05:35:55;;;;;;;21.95;13.70;;;;;;;-142.91;100.00;56616.03;5028928;28;20283;-72
2024/01/04 05:38:22;;;;;;;19.20;11.50;;;;;;;-142.91;100.00;56616.03;5022980;28;20679;-72
2024/01/04 05:40:49;;;;;;;23.92;12.65;;;;;;;-142.91;100.00;56616.03;5026177;28;20199;-71
2024/01/04 05:43:15;;;;;;;16.75;11.13;;;;;;;-142.91;100.00;56616.03;5027013;28;20295;-71
2024/01/04 05:45:41;;;;;;;26.85;12.10;;;;;;;-142.91;100.00;56616.03;5023567;28;20303;-72
2024/01/04 05:48:08;;;;;;;26.15;15.60;;;;;;;23.26;100.00;56616.03;5026789;28;20218;-74
2024/01/04 05:50:36;;;;;;;28.77;16.55;;;;;;;-142.91;100.00;56616.03;5029024;28;20222;-73
2024/01/04 05:53:02;;;;;;;26.55;15.07;;;;;;;-142.91;100.00;56616.03;5030550;28;20318;-72
2024/01/04 05:55:30;;;;;;;31.45;17.38;;;;;;;-142.91;100.00;56616.03;5027796;28;20703;-72
2024/01/04 05:57:57;;;;;;;35.63;18.52;;;;;;;-142.91;100.00;56616.03;5025619;28;20202;-71
2024/01/04 06:00:23;;;;;;;32.92;17.23;;;;;;;-142.91;100.00;56616.03;5023230;28;20242;-72
2024/01/04 06:02:50;;;;;;;26.30;16.17;;;;;;;-142.91;100.00;56616.03;5025061;28;20227;-72
2024/01/04 06:05:16;;;;;;;26.40;15.82;;;;;;;23.25;100.00;56616.03;5021424;28;20308;-73
2024/01/04 06:07:44;;;;;;;34.63;15.00;;;;;;;-142.91;100.00;56616.03;5027622;28;20334;-72
2024/01/04 06:10:11;;;;;;;26.10;14.63;;;;;;;-142.91;100.00;56616.03;5026653;28;20346;-72
2024/01/04 06:12:38;;;;;;;30.92;17.63;;;;;;;-142.91;100.00;56616.03;5028109;28;20295;-71
2024/01/04 06:15:05;;;;;;;28.88;17.27;;;;;;;-142.91;100.00;56616.03;5031339;28;20200;-72
2024/01/04 06:17:31;;;;;;;40.85;20.42;;;;;;;-142.91;100.00;56616.03;5031982;28;20200;-73
2024/01/04 06:19:58;;;;;;;34.80;18.15;;;;;;;-142.91;100.00;56616.03;5025368;28;20249;-71
2024/01/04 06:22:25;;;;;;;29.48;18.10;;;;;;;-142.91;100.00;56616.03;5025301;28;20326;-71
2024/01/04 06:24:53;;;;;;;29.90;17.75;;;;;;;-142.91;100.00;56616.03;5025134;28;20228;-71
2024/01/04 06:27:19;;;;;;;31.77;18.17;;;;;;;-142.91;100.00;56616.03;5024606;28;20724;-72
2024/01/04 06:29:46;;;;;;;32.40;16.90;;;;;;;-142.91;100.00;56616.03;5023520;28;20326;-73
2024/01/04 06:32:13;;;;;;;30.40;18.13;;;;;;;-142.91;100.00;56616.03;5035050;28;21046;-72
2024/01/04 06:34:39;;;;;;;30.98;17.85;;;;;;;-142.91;100.00;56616.03;5041314;28;20696;-71
2024/01/04 06:37:06;;;;;;;36.83;16.58;;;;;;;-142.91;100.00;56616.03;5041225;28;20866;-73
2024/01/04 06:39:33;;;;;;;26.67;12.80;;;;;;;-142.91;100.00;56616.03;5042823;28;20285;-72
2024/01/04 06:42:04;;;;;;;11.23;6.97;;;;;;;-142.91;100.00;56616.03;5041992;28;20250;-73
2024/01/04 06:44:31;;;;;;;14.90;8.98;;;;;;;-142.91;100.00;56616.03;5040147;28;20686;-70
2024/01/04 06:46:57;;;;;;;20.85;11.50;;;;;;;-142.91;100.00;56616.03;5041299;28;20226;-70
2024/01/04 06:49:24;;;;;;;22.80;12.07;;;;;;;-142.91;100.00;56616.03;5041717;28;20250;-71
2024/01/04 06:51:51;;;;;;;23.95;12.25;;;;;;;-142.91;100.00;56616.03;5041852;28;20287;-72
2024/01/04 06:54:17;;;;;;;20.80;12.05;;;;;;;-142.91;100.00;56616.03;5041131;28;20651;-71
2024/01/04 06:56:46;;;;;;;20.90;11.70;;;;;;;-142.91;100.00;56616.03;5043394;28;20305;-71
2024/01/04 06:59:14;;;;;;;19.25;11.68;;;;;;;-142.91;100.00;56616.03;5030638;28;20203;-72
2024/01/04 07:01:41;;;;;;;19.90;12.20;;;;;;;-142.91;100.00;56616.03;5042404;28;20289;-73
2024/01/04 07:04:08;;;;;;;18.90;11.73;;;;;;;-142.91;100.00;56616.03;5041318;28;20980;-71
2024/01/04 07:06:34;;;;;;;22.25;12.32;;;;;;;-142.91;100.00;56616.03;5043305;28;20198;-72
2024/01/04 07:09:01;;;;;;;26.05;13.55;;;;;;;-142.91;100.00;56616.03;5041916;28;20302;-71
2024/01/04 07:11:30;;;;;;;24.10;13.05;;;;;;;189.72;100.00;56616.03;5042680;28;20323;-73
2024/01/04 07:13:56;;;;;;;17.73;11.57;;;;;;;-142.91;100.00;56616.03;5042496;28;20732;-73
2024/01/04 07:16:24;;;;;;;20.42;12.45;;;;;;;-142.91;100.00;56616.03;5042498;28;20301;-72
2024/01/04 07:18:51;;;;;;;16.38;10.20;;;;;;;-142.91;100.00;56616.03;5041878;28;20226;-72
2024/01/04 07:21:18;;;;;;;19.80;10.98;;;;;;;-142.91;100.00;56616.03;5040474;28;20317;-74
2024/01/04 07:23:44;;;;;;;18.08;10.38;;;;;;;-142.91;100.00;56616.03;5043449;28;20211;-71
2024/01/04 07:26:11;;;;;;;21.58;12.38;;;;;;;;;;5040234;28;20307;-71
2024/01/04 07:28:37;;;;;;;23.98;11.45;;;;;;;-142.91;100.00;56616.03;5042013;28;20287;-71
2024/01/04 07:31:04;;;;;;;34.78;13.52;;;;;;;-142.91;100.00;56616.03;5039757;28;20905;-72
2024/01/04 07:33:32;;;;;;;21.73;11.40;;;;;;;-142.91;100.00;56616.03;5043244;28;20660;-71
2024/01/04 07:35:59;;;;;;;16.30;10.77;;;;;;;-142.91;100.00;56616.03;5040466;28;21458;-72
2024/01/04 07:38:26;;;;;;;21.20;11.70;;;;;;;-142.91;100.00;56616.03;5038908;28;20213;-73
2024/01/04 07:40:52;;;;;;;18.45;13.10;;;;;;;-142.91;100.00;56616.03;5033215;28;20291;-72
2024/01/04 07:43:20;;;;;;;16.15;11.60;;;;;;;-142.91;100.00;56616.03;5041681;28;20282;-73
2024/01/04 07:45:47;;;;;;;23.63;12.25;;;;;;;23.25;100.00;56616.03;5042065;28;20664;-71
2024/01/04 07:48:14;;;;;;;18.85;11.95;;;;;;;-142.91;100.00;56616.03;5043057;28;20206;-70
2024/01/04 07:50:42;;;;;;;23.33;12.73;;;;;;;-142.91;100.00;56616.03;5034633;28;20344;-72
2024/01/04 07:53:08;;;;;;;25.48;14.35;;;;;;;-142.91;100.00;56616.03;5040348;28;20294;-72
2024/01/04 07:55:35;;;;;;;24.30;13.05;;;;;;;-142.91;100.00;56616.03;5038842;28;20283;-73
2024/01/04 07:58:02;;;;;;;23.42;13.85;;;;;;;-142.91;100.00;56616.03;5044564;28;20282;-73
2024/01/04 08:00:28;;;;;;;26.15;13.05;;;;;;;-142.91;100.00;56616.03;5044477;28;20204;-71
2024/01/04 08:02:55;;;;;;;18.92;12.15;;;;;;;-142.91;100.00;56616.03;5044037;28;20763;-72
2024/01/04 08:05:22;;;;;;;22.35;12.20;;;;;;;-142.91;100.00;56616.03;5043146;28;20282;-72
2024/01/04 08:07:50;;;;;;;19.48;11.25;;;;;;;-142.91;100.00;56616.03;5044473;28;20667;-70
2024/01/04 08:10:16;;;;;;;17.92;9.45;;;;;;;-142.91;100.00;56616.03;5044351;28;20310;-72
2024/01/04 08:12:45;;;;;;;17.13;9.38;;;;;;;-142.91;100.00;56616.03;5043181;28;20249;-72
2024/01/04 08:15:12;;;;;;;28.48;9.90;;;;;;;-142.91;100.00;56616.03;5042875;28;20211;-72
2024/01/04 08:17:39;;;;;;;20.67;8.60;;;;;;;-142.91;100.00;56616.03;5045953;28;20258;-71
2024/01/04 08:20:06;;;;;;;14.05;8.13;;;;;;;-142.91;100.00;56616.03;5044581;28;20223;-71
2024/01/04 08:22:33;;;;;;;16.52;10.05;;;;;;;-142.91;100.00;56616.03;5036917;28;20318;-72
2024/01/04 08:25:01;;;;;;;15.18;9.73;;;;;;;-142.91;100.00;56616.03;5021826;28;20219;-74
2024/01/04 08:27:27;;;;;;;27.85;12.20;;;;;;;-142.91;100.00;56616.03;5025270;28;20291;-72
2024/01/04 08:29:54;;;;;;;20.98;11.70;;;;;;;-142.91;100.00;56616.03;5030825;28;20294;-72
2024/01/04 08:32:20;;;;;;;27.23;16.20;;;;;;;-142.91;100.00;56616.03;5043664;28;20285;-74
2024/01/04 08:34:47;;;;;;;29.10;16.10;;;;;;;-142.91;100.00;56616.03;5041961;28;20956;-74
2024/01/04 08:37:14;;;;;;;36.92;16.40;;;;;;;-142.91;100.00;56616.03;5037588;28;20203;-78
2024/01/04 08:39:41;;;;;;;28.98;16.23;;;;;;;-142.91;100.00;56616.03;5042161;28;20207;-73
2024/01/04 08:42:09;;;;;;;24.40;14.90;;;;;;;-142.91;100.00;56616.03;5044228;28;20298;-72
2024/01/04 08:44:35;;;;;;;31.25;16.27;;;;;;;-142.91;100.00;56616.03;5043199;28;20230;-70
2024/01/04 08:47:02;;;;;;;21.17;15.40;;;;;;;-142.91;100.00;56616.03;5042265;28;20282;-72
2024/01/04 08:49:29;;;;;;;33.65;17.27;;;;;;;-142.91;100.00;56616.03;5045888;28;20226;-73
2024/01/04 08:51:56;;;;;;;26.83;15.88;;;;;;;-142.91;100.00;56616.03;5043897;28;20314;-73
2024/01/04 08:54:24;;;;;;;29.17;15.30;;;;;;;-142.91;100.00;56616.03;5042448;28;20207;-73
2024/01/04 08:56:50;;;;;;;25.10;12.32;;;;;;;-142.91;100.00;56616.03;5042971;28;20287;-72
2024/01/04 08:59:19;;;;;;;24.65;15.00;;;;;;;-142.91;100.00;56616.03;5042750;28;20669;-73
2024/01/04 09:01:45;;;;;;;30.20;16.92;;;;;;;-142.91;100.00;56616.03;5037921;28;20196;-71
2024/01/04 09:04:12;;;;;;;32.22;18.35;;;;;;;-142.91;100.00;56616.03;5007082;28;20714;-73
2024/01/04 09:06:39;;;;;;;29.75;19.80;;;;;;;-142.91;100.00;56616.03;5008232;28;20218;-74
2024/01/04 09:09:07;;;;;;;39.78;18.77;;;;;;;-142.91;100.00;56616.03;5007283;28;20245;-71
2024/01/04 09:11:39;;;;;;;38.15;22.10;;;;;;;-142.91;100.00;56616.03;5010139;28;20230;-75
2024/01/04 09:14:11;;;;;;;28.15;17.63;;;;;;;-142.91;100.00;56616.03;5001273;28;20207;-74
2024/01/04 09:16:39;;;;;;;29.05;17.38;;;;;;;-142.91;100.00;56616.03;5010817;28;20215;-75
2024/01/04 09:19:06;;;;;;;30.77;16.67;;;;;;;-142.91;100.00;56616.03;5036410;28;20421;-77
2024/01/04 09:21:33;;;;;;;29.67;17.77;;;;;;;-142.91;100.00;56616.03;5039146;28;20266;-74
2024/01/04 09:23:59;;;;;;;35.67;17.13;;;;;;;-142.91;100.00;56616.03;5033944;28;20314;-74
2024/01/04 09:26:26;;;;;;;31.83;17.70;;;;;;;-142.91;100.00;56616.03;5035113;28;20203;-71
2024/01/04 09:28:52;;;;;;;25.75;15.48;;;;;;;-142.91;100.00;56616.03;5029512;28;20765;-70
2024/01/04 09:31:19;;;;;;;14.60;11.20;;;;;;;-142.91;100.00;56616.03;5006533;28;20361;-71
2024/01/04 09:33:47;;;;;;;17.33;10.57;;;;;;;-142.91;100.00;56616.03;5010755;28;20206;-71
2024/01/04 09:36:14;;;;;;;20.90;11.05;;;;;;;-142.91;100.00;56616.03;5009230;28;20787;-73
2024/01/04 09:38:41;;;;;;;19.63;10.10;;;;;;;-142.91;100.00;56616.03;5011073;28;20346;-72
2024/01/04 09:41:17;;;;;;;27.27;10.70;;;;;;;-142.91;100.00;56616.03;5008379;28;20322;-70
2024/01/04 09:43:44;;;;;;;17.40;10.73;;;;;;;-142.91;100.00;56616.03;5009010;28;20203;-72
2024/01/04 09:46:19;;;;;;;15.88;10.07;;;;;;;-142.91;100.00;56616.03;5013361;28;20227;-70
2024/01/04 09:48:53;;;;;;;15.63;8.07;;;;;;;-142.91;100.00;56616.03;5012078;28;20217;-69
2024/01/04 09:51:20;;;;;;;15.25;7.72;;;;;;;23.27;100.00;56616.03;5008472;28;20261;-71
2024/01/04 09:53:47;;;;;;;16.10;7.43;;;;;;;-142.91;100.00;56616.03;5007239;28;20891;-70
2024/01/04 09:56:15;;;;;;;6.95;6.25;;;;;;;-142.91;100.00;56616.03;4999989;28;20208;-70
2024/01/04 09:58:42;;;;;;;10.50;7.07;;;;;;;-142.91;100.00;56616.03;5002402;28;20302;-70
2024/01/04 10:01:10;;;;;;;13.60;7.45;;;;;;;-142.91;100.00;56616.03;5017739;28;20207;-69
2024/01/04 10:03:43;;;;;;;9.63;7.22;;;;;;;-142.91;100.00;56616.03;5041802;28;20199;-72
2024/01/04 10:06:12;;;;;;;13.27;8.07;;;;;;;-142.91;100.00;56616.03;5040499;28;20294;-72
2024/01/04 10:08:43;;;;;;;7.47;6.05;;;;;;;-142.91;100.00;56616.03;5040605;28;20728;-71
2024/01/04 10:11:16;;;;;;;12.65;6.35;;;;;;;-142.91;100.00;56616.03;5025739;28;20227;-71
2024/01/04 10:13:44;;;;;;;7.53;5.70;;;;;;;-142.91;100.00;56616.03;5036933;28;20238;-71
2024/01/04 10:16:11;;;;;;;9.80;6.97;;;;;;;-142.91;100.00;56616.03;5034359;28;20754;-71
2024/01/04 10:18:39;;;;;;;11.73;5.72;;;;;;;-142.91;100.00;56616.03;5039764;28;20282;-70
2024/01/04 10:21:07;;;;;;;8.95;5.80;;;;;;;-142.91;100.00;56616.03;5041849;28;20234;-69
2024/01/04 10:23:35;;;;;;;9.13;5.88;;;;;;;-142.91;100.00;56616.03;5040459;28;20699;-71
2024/01/04 10:26:09;;;;;;;10.93;5.78;;;;;;;-142.91;100.00;56616.03;5041339;28;20374;-70
2024/01/04 10:28:38;;;;;;;7.85;6.65;;;;;;;-142.91;100.00;56616.03;5039235;28;20813;-70
2024/01/04 10:31:06;;;;;;;6.65;6.00;;;;;;;-142.91;100.00;56616.03;5041219;28;20253;-69
2024/01/04 10:33:33;;;;;;;10.60;7.10;;;;;;;-142.91;100.00;56616.03;5040569;28;20299;-69
2024/01/04 10:36:08;;;;;;;13.85;7.15;;;;;;;-142.91;100.00;56616.03;5041671;28;20286;-70
2024/01/04 10:38:37;;;;;;;11.48;6.50;;;;;;;-142.91;100.00;56616.03;5039787;28;20281;-71
2024/01/04 10:41:04;;;;;;;13.65;6.93;;;;;;;-142.91;100.00;56616.03;5037946;28;20195;-71
2024/01/04 10:43:31;;;;;;;9.20;6.57;;;;;;;-142.91;100.00;56616.03;5041713;28;20306;-71
2024/01/04 10:46:02;;;;;;;9.95;5.75;;;;;;;-142.91;100.00;56616.03;5040621;28;20588;-71
2024/01/04 10:48:29;;;;;;;9.30;5.38;;;;;;;-142.91;100.00;56616.03;5041319;28;20206;-71
2024/01/04 10:51:03;;;;;;;14.90;6.47;;;;;;;-142.91;100.00;56616.03;5038911;28;20225;-70
2024/01/04 10:53:32;;;;;;;10.02;6.10;;;;;;;-142.91;100.00;56616.03;5042506;28;20214;-70
2024/01/04 10:56:00;;;;;;;9.38;6.45;;;;;;;-142.91;100.00;56616.03;5034582;28;20201;-70
2024/01/04 10:58:26;;;;;;;6.18;5.35;;;;;;;-142.91;100.00;56616.03;5038657;28;20330;-70
2024/01/04 11:00:54;;;;;;;8.48;5.75;;;;;;;-142.91;100.00;56616.03;5041192;28;20784;-72